createdAt,value
2022-10-16T00:01:56.973Z,15.39
2022-10-16T00:11:58.363Z,15.48
2022-10-16T00:21:59.663Z,15.45
2022-10-16T00:32:00.981Z,15.39
2022-10-16T00:42:02.461Z,15.37
2022-10-16T00:52:03.662Z,15.43
2022-10-16T01:02:04.969Z,15.44
2022-10-16T01:12:06.264Z,15.47
2022-10-16T01:22:07.542Z,15.48
2022-10-16T01:32:08.822Z,15.38
2022-10-16T01:42:10.132Z,15.28
2022-10-16T01:52:11.477Z,15.27
2022-10-16T02:02:12.809Z,15.18
2022-10-16T02:12:14.171Z,15.05
2022-10-16T02:22:15.527Z,14.93
2022-10-16T02:32:16.883Z,14.88
2022-10-16T02:42:18.221Z,14.86
2022-10-16T02:52:19.513Z,14.91
2022-10-16T03:02:20.928Z,14.92
2022-10-16T03:12:22.275Z,14.96
2022-10-16T03:22:23.645Z,14.92
2022-10-16T03:32:26.327Z,14.87
2022-10-16T03:42:27.733Z,14.88
2022-10-16T03:52:29.059Z,14.93
2022-10-16T04:02:30.366Z,14.96
2022-10-16T04:12:31.655Z,15.00
2022-10-16T04:22:32.962Z,15.02
2022-10-16T04:32:34.241Z,14.98
2022-10-16T04:42:35.625Z,15.04
2022-10-16T04:52:37.125Z,15.07
2022-10-16T05:02:38.493Z,15.09
2022-10-16T05:12:39.861Z,15.09
2022-10-16T05:22:41.213Z,15.13
2022-10-16T05:32:42.500Z,15.14
2022-10-16T05:42:43.846Z,15.08
2022-10-16T05:52:45.163Z,15.05
2022-10-16T06:02:46.552Z,15.00
2022-10-16T06:12:47.837Z,15.01
2022-10-16T06:22:49.139Z,15.03
2022-10-16T06:32:50.514Z,15.07
2022-10-16T06:42:52.955Z,15.13
2022-10-16T06:52:54.294Z,15.26
2022-10-16T07:02:55.609Z,15.31
2022-10-16T07:12:56.894Z,15.44
2022-10-16T07:22:58.198Z,15.50
2022-10-16T07:32:59.447Z,15.58
2022-10-16T07:43:04.220Z,15.76
2022-10-16T07:53:05.556Z,15.90
2022-10-16T08:03:06.899Z,16.06
2022-10-16T08:23:09.451Z,16.28
2022-10-16T08:33:10.763Z,16.52
2022-10-16T08:43:12.112Z,16.82
2022-10-16T08:53:13.408Z,16.87
2022-10-16T09:03:14.637Z,16.78
2022-10-16T09:13:15.959Z,16.85
2022-10-16T09:23:17.418Z,16.76
2022-10-16T09:33:18.662Z,17.33
2022-10-16T09:43:19.869Z,17.67
2022-10-16T09:53:23.692Z,18.12
2022-10-16T10:03:24.984Z,18.71
2022-10-16T10:13:28.867Z,19.23
2022-10-16T10:23:30.957Z,19.51
2022-10-16T10:33:32.298Z,19.75
2022-10-16T10:43:33.668Z,19.73
2022-10-16T10:53:34.979Z,19.92
2022-10-16T11:03:36.446Z,19.83
2022-10-16T11:13:37.801Z,19.87
2022-10-16T11:23:39.188Z,20.26
2022-10-16T11:33:40.407Z,20.33
2022-10-16T11:43:41.630Z,20.65
2022-10-16T11:53:43.425Z,20.77
2022-10-16T12:03:46.908Z,21.00
2022-10-16T12:13:50.738Z,20.92
2022-10-16T12:23:52.202Z,21.11
2022-10-16T12:33:53.493Z,21.11
2022-10-16T12:43:54.968Z,21.07
2022-10-16T12:53:56.212Z,20.88
2022-10-16T13:03:57.730Z,20.56
2022-10-16T13:13:58.961Z,20.24
2022-10-16T13:24:00.446Z,20.03
2022-10-16T13:34:01.775Z,19.89
2022-10-16T13:44:03.001Z,19.81
2022-10-16T13:54:04.267Z,19.76
2022-10-16T14:04:06.112Z,19.71
2022-10-16T14:14:07.456Z,19.61
2022-10-16T14:24:08.918Z,19.60
2022-10-16T14:34:10.124Z,19.91
2022-10-16T14:44:11.351Z,20.05
2022-10-16T14:54:12.626Z,20.00
2022-10-16T15:04:13.966Z,19.80
2022-10-16T15:24:20.681Z,19.62
2022-10-16T15:34:22.841Z,19.62
2022-10-16T15:44:26.479Z,19.29
2022-10-16T15:54:28.928Z,19.29
2022-10-16T16:04:43.561Z,19.06
2022-10-16T16:14:47.561Z,18.81
2022-10-16T16:24:48.825Z,18.42
2022-10-16T16:34:50.117Z,17.96
2022-10-16T16:44:51.584Z,17.61
2022-10-16T16:54:53.062Z,17.23
2022-10-16T17:04:54.514Z,16.91
2022-10-16T17:14:55.727Z,16.59
2022-10-16T17:24:56.977Z,16.33
2022-10-16T17:34:58.268Z,16.22
2022-10-16T17:44:59.551Z,16.11
2022-10-16T17:55:01.382Z,15.97
2022-10-16T18:05:06.193Z,15.88
2022-10-16T18:15:07.582Z,15.74
2022-10-16T18:25:08.929Z,15.62
2022-10-16T18:35:10.238Z,15.62
2022-10-16T18:45:11.607Z,15.44
2022-10-16T18:55:12.903Z,15.29
2022-10-16T19:05:15.752Z,15.22
2022-10-16T19:15:17.303Z,15.16
2022-10-16T19:25:18.646Z,15.04
2022-10-16T19:35:20.138Z,14.95
2022-10-16T19:45:21.547Z,14.84
2022-10-16T19:55:23.136Z,14.72
2022-10-16T20:05:24.606Z,14.63
2022-10-16T20:15:26.037Z,14.50
2022-10-16T20:25:27.519Z,14.41
2022-10-16T20:35:28.830Z,14.30
2022-10-16T20:45:30.126Z,14.22
2022-10-16T20:55:31.412Z,14.12
2022-10-16T21:05:34.663Z,14.03
2022-10-16T21:15:35.970Z,13.94
2022-10-16T21:25:37.325Z,13.84
2022-10-16T21:35:38.622Z,13.69
2022-10-16T21:45:40.209Z,13.63
2022-10-16T21:55:41.487Z,13.55
2022-10-16T22:05:42.946Z,13.51
2022-10-16T22:15:44.309Z,13.40
2022-10-16T22:25:45.608Z,13.29
2022-10-16T22:35:46.924Z,13.20
2022-10-16T22:45:48.223Z,13.09
2022-10-16T22:55:49.570Z,13.00
2022-10-16T23:05:50.894Z,12.90
2022-10-16T23:15:52.383Z,12.76
2022-10-16T23:25:53.686Z,12.70
2022-10-16T23:35:54.960Z,12.65
2022-10-16T23:45:56.329Z,12.61
2022-10-16T23:55:57.611Z,12.48
